Airport View

Enter AWOS ICAO identifier for current METAR.

ex. KFNL

KSUS 112054Z 25006KT 10SM CLR 09/M06 A3042 RMK AO2 SLP310 T00891061 55006

11 Dec 2019 21:53

Frequency: 134.8

Phone: 314-890-7255

Other Area AWOS: KSTL - KFYG - KSET - KCPS

TAF KSUS 111731Z 1118/1218 26008KT P6SM SKC FM120200 14005KT P6SM FEW250 FM121100 16007KT P6SM BKN250 WS011/21040KT FM121600 19011G22KT P6SM BKN250